sensor_id;sensor_type;location;lat;lon;timestamp;P1;durP1;ratioP1;P2;durP2;ratioP2
20369;SDS011;10344;47.592;9.600;2023-04-01T00:01:04;0.98;;;0.70;;
20369;SDS011;10344;47.592;9.600;2023-04-01T00:03:31;1.80;;;0.90;;
20369;SDS011;10344;47.592;9.600;2023-04-01T00:05:58;0.90;;;0.70;;
20369;SDS011;10344;47.592;9.600;2023-04-01T00:08:24;0.98;;;0.70;;
20369;SDS011;10344;47.592;9.600;2023-04-01T00:10:52;1.85;;;1.08;;
20369;SDS011;10344;47.592;9.600;2023-04-01T00:13:21;1.45;;;0.70;;
20369;SDS011;10344;47.592;9.600;2023-04-01T00:15:48;1.47;;;0.70;;
20369;SDS011;10344;47.592;9.600;2023-04-01T00:18:16;1.30;;;0.60;;
20369;SDS011;10344;47.592;9.600;2023-04-01T00:20:50;0.60;;;0.60;;
20369;SDS011;10344;47.592;9.600;2023-04-01T00:23:19;1.77;;;0.90;;
20369;SDS011;10344;47.592;9.600;2023-04-01T00:25:48;1.75;;;0.60;;
20369;SDS011;10344;47.592;9.600;2023-04-01T00:28:23;1.45;;;0.60;;
20369;SDS011;10344;47.592;9.600;2023-04-01T00:30:52;1.20;;;0.75;;
20369;SDS011;10344;47.592;9.600;2023-04-01T00:33:18;1.50;;;0.77;;
20369;SDS011;10344;47.592;9.600;2023-04-01T00:35:44;1.45;;;0.60;;
20369;SDS011;10344;47.592;9.600;2023-04-01T00:38:12;0.65;;;0.50;;
20369;SDS011;10344;47.592;9.600;2023-04-01T00:40:44;0.90;;;0.70;;
20369;SDS011;10344;47.592;9.600;2023-04-01T00:43:19;1.25;;;0.60;;
20369;SDS011;10344;47.592;9.600;2023-04-01T00:45:46;1.35;;;0.50;;
20369;SDS011;10344;47.592;9.600;2023-04-01T00:48:16;0.80;;;0.45;;
20369;SDS011;10344;47.592;9.600;2023-04-01T00:50:47;0.80;;;0.70;;
20369;SDS011;10344;47.592;9.600;2023-04-01T00:53:18;0.60;;;0.60;;
20369;SDS011;10344;47.592;9.600;2023-04-01T00:55:59;0.88;;;0.60;;
20369;SDS011;10344;47.592;9.600;2023-04-01T00:58:29;1.38;;;0.70;;
20369;SDS011;10344;47.592;9.600;2023-04-01T01:01:02;1.05;;;0.65;;
20369;SDS011;10344;47.592;9.600;2023-04-01T01:03:29;1.02;;;0.57;;
20369;SDS011;10344;47.592;9.600;2023-04-01T01:09:14;0.52;;;0.50;;
20369;SDS011;10344;47.592;9.600;2023-04-01T01:11:29;0.65;;;0.65;;
20369;SDS011;10344;47.592;9.600;2023-04-01T01:14:09;0.80;;;0.50;;
20369;SDS011;10344;47.592;9.600;2023-04-01T01:16:53;1.00;;;0.85;;
20369;SDS011;10344;47.592;9.600;2023-04-01T01:19:46;1.25;;;0.60;;
20369;SDS011;10344;47.592;9.600;2023-04-01T01:22:41;0.80;;;0.63;;
20369;SDS011;10344;47.592;9.600;2023-04-01T01:34:29;0.75;;;0.70;;
20369;SDS011;10344;47.592;9.600;2023-04-01T01:37:25;2.00;;;1.05;;
20369;SDS011;10344;47.592;9.600;2023-04-01T01:39:54;1.08;;;0.80;;
20369;SDS011;10344;47.592;9.600;2023-04-01T01:42:30;1.35;;;0.90;;
20369;SDS011;10344;47.592;9.600;2023-04-01T01:45:01;1.90;;;1.00;;
20369;SDS011;10344;47.592;9.600;2023-04-01T01:47:29;1.85;;;0.90;;
20369;SDS011;10344;47.592;9.600;2023-04-01T01:49:55;0.93;;;0.80;;
20369;SDS011;10344;47.592;9.600;2023-04-01T01:52:22;0.60;;;0.55;;
20369;SDS011;10344;47.592;9.600;2023-04-01T01:54:50;0.98;;;0.77;;
20369;SDS011;10344;47.592;9.600;2023-04-01T01:57:24;2.50;;;0.93;;
20369;SDS011;10344;47.592;9.600;2023-04-01T01:59:55;1.52;;;0.60;;
20369;SDS011;10344;47.592;9.600;2023-04-01T02:02:28;1.05;;;0.68;;
20369;SDS011;10344;47.592;9.600;2023-04-01T02:04:56;2.28;;;0.68;;
20369;SDS011;10344;47.592;9.600;2023-04-01T02:07:30;1.63;;;0.70;;
20369;SDS011;10344;47.592;9.600;2023-04-01T02:10:01;0.70;;;0.60;;
20369;SDS011;10344;47.592;9.600;2023-04-01T02:12:29;1.25;;;0.63;;
20369;SDS011;10344;47.592;9.600;2023-04-01T02:14:59;0.90;;;0.57;;
20369;SDS011;10344;47.592;9.600;2023-04-01T02:17:39;1.27;;;0.77;;
20369;SDS011;10344;47.592;9.600;2023-04-01T02:20:15;1.30;;;0.82;;
20369;SDS011;10344;47.592;9.600;2023-04-01T02:22:49;1.40;;;0.80;;
20369;SDS011;10344;47.592;9.600;2023-04-01T02:25:23;0.60;;;0.50;;
20369;SDS011;10344;47.592;9.600;2023-04-01T02:27:55;0.80;;;0.70;;
20369;SDS011;10344;47.592;9.600;2023-04-01T02:30:29;0.90;;;0.77;;
20369;SDS011;10344;47.592;9.600;2023-04-01T02:32:58;0.60;;;0.52;;
20369;SDS011;10344;47.592;9.600;2023-04-01T02:35:28;0.40;;;0.40;;
20369;SDS011;10344;47.592;9.600;2023-04-01T02:37:54;0.60;;;0.50;;
20369;SDS011;10344;47.592;9.600;2023-04-01T02:40:20;0.50;;;0.50;;
20369;SDS011;10344;47.592;9.600;2023-04-01T02:42:49;0.65;;;0.60;;
20369;SDS011;10344;47.592;9.600;2023-04-01T02:45:15;1.98;;;0.90;;
20369;SDS011;10344;47.592;9.600;2023-04-01T02:47:41;0.68;;;0.57;;
20369;SDS011;10344;47.592;9.600;2023-04-01T02:50:07;1.73;;;0.60;;
20369;SDS011;10344;47.592;9.600;2023-04-01T02:52:33;1.17;;;0.60;;
20369;SDS011;10344;47.592;9.600;2023-04-01T02:55:03;1.05;;;0.70;;
20369;SDS011;10344;47.592;9.600;2023-04-01T02:57:31;0.70;;;0.50;;
20369;SDS011;10344;47.592;9.600;2023-04-01T02:59:58;1.10;;;0.60;;
20369;SDS011;10344;47.592;9.600;2023-04-01T03:02:26;1.08;;;0.73;;
20369;SDS011;10344;47.592;9.600;2023-04-01T03:04:52;0.70;;;0.70;;
20369;SDS011;10344;47.592;9.600;2023-04-01T03:07:18;1.20;;;0.60;;
20369;SDS011;10344;47.592;9.600;2023-04-01T03:09:46;1.27;;;0.80;;
20369;SDS011;10344;47.592;9.600;2023-04-01T03:12:13;1.55;;;0.75;;
20369;SDS011;10344;47.592;9.600;2023-04-01T03:14:42;2.47;;;1.00;;
20369;SDS011;10344;47.592;9.600;2023-04-01T03:17:07;1.52;;;0.77;;
20369;SDS011;10344;47.592;9.600;2023-04-01T03:19:33;2.07;;;0.70;;
20369;SDS011;10344;47.592;9.600;2023-04-01T03:21:59;1.92;;;1.00;;
20369;SDS011;10344;47.592;9.600;2023-04-01T03:24:25;1.80;;;0.80;;
20369;SDS011;10344;47.592;9.600;2023-04-01T03:26:56;1.90;;;1.00;;
20369;SDS011;10344;47.592;9.600;2023-04-01T03:29:22;1.30;;;0.80;;
20369;SDS011;10344;47.592;9.600;2023-04-01T03:31:54;1.10;;;0.60;;
20369;SDS011;10344;47.592;9.600;2023-04-01T03:34:22;1.73;;;0.82;;
20369;SDS011;10344;47.592;9.600;2023-04-01T03:36:51;2.92;;;1.00;;
20369;SDS011;10344;47.592;9.600;2023-04-01T03:39:25;1.93;;;0.90;;
20369;SDS011;10344;47.592;9.600;2023-04-01T03:41:51;1.48;;;0.80;;
20369;SDS011;10344;47.592;9.600;2023-04-01T03:44:17;1.20;;;0.80;;
20369;SDS011;10344;47.592;9.600;2023-04-01T03:46:43;0.85;;;0.77;;
20369;SDS011;10344;47.592;9.600;2023-04-01T03:49:09;1.33;;;1.00;;
20369;SDS011;10344;47.592;9.600;2023-04-01T03:51:44;3.28;;;1.00;;
20369;SDS011;10344;47.592;9.600;2023-04-01T03:54:10;2.30;;;0.98;;
20369;SDS011;10344;47.592;9.600;2023-04-01T03:56:36;2.00;;;1.00;;
20369;SDS011;10344;47.592;9.600;2023-04-01T03:59:03;2.60;;;1.25;;
20369;SDS011;10344;47.592;9.600;2023-04-01T04:01:30;2.63;;;1.30;;
20369;SDS011;10344;47.592;9.600;2023-04-01T04:03:56;1.85;;;0.80;;
20369;SDS011;10344;47.592;9.600;2023-04-01T04:06:24;3.10;;;1.00;;
20369;SDS011;10344;47.592;9.600;2023-04-01T04:08:56;1.50;;;0.90;;
20369;SDS011;10344;47.592;9.600;2023-04-01T04:11:22;2.38;;;0.95;;
20369;SDS011;10344;47.592;9.600;2023-04-01T04:13:58;1.60;;;0.90;;
20369;SDS011;10344;47.592;9.600;2023-04-01T04:16:24;1.60;;;1.00;;
20369;SDS011;10344;47.592;9.600;2023-04-01T04:18:50;2.10;;;1.27;;
20369;SDS011;10344;47.592;9.600;2023-04-01T04:21:21;1.90;;;0.90;;
20369;SDS011;10344;47.592;9.600;2023-04-01T04:23:54;1.10;;;0.80;;
20369;SDS011;10344;47.592;9.600;2023-04-01T04:26:22;2.70;;;1.33;;
20369;SDS011;10344;47.592;9.600;2023-04-01T04:28:48;1.92;;;1.10;;
20369;SDS011;10344;47.592;9.600;2023-04-01T04:31:19;1.55;;;1.00;;
20369;SDS011;10344;47.592;9.600;2023-04-01T04:33:48;1.60;;;1.00;;
20369;SDS011;10344;47.592;9.600;2023-04-01T04:36:14;3.53;;;0.80;;
20369;SDS011;10344;47.592;9.600;2023-04-01T04:38:40;1.42;;;1.08;;
20369;SDS011;10344;47.592;9.600;2023-04-01T04:41:10;2.50;;;0.80;;
20369;SDS011;10344;47.592;9.600;2023-04-01T04:43:37;2.08;;;0.88;;
20369;SDS011;10344;47.592;9.600;2023-04-01T04:46:13;2.35;;;0.95;;
20369;SDS011;10344;47.592;9.600;2023-04-01T04:48:39;2.13;;;1.00;;
20369;SDS011;10344;47.592;9.600;2023-04-01T04:51:04;1.45;;;1.05;;
20369;SDS011;10344;47.592;9.600;2023-04-01T04:53:31;2.57;;;0.97;;
20369;SDS011;10344;47.592;9.600;2023-04-01T04:55:56;1.80;;;1.00;;
20369;SDS011;10344;47.592;9.600;2023-04-01T04:58:24;1.98;;;1.02;;
20369;SDS011;10344;47.592;9.600;2023-04-01T05:00:50;1.67;;;1.20;;
20369;SDS011;10344;47.592;9.600;2023-04-01T05:03:16;2.03;;;1.02;;
20369;SDS011;10344;47.592;9.600;2023-04-01T05:05:48;3.00;;;1.00;;
20369;SDS011;10344;47.592;9.600;2023-04-01T05:08:15;1.50;;;0.60;;
20369;SDS011;10344;47.592;9.600;2023-04-01T05:10:43;1.98;;;0.80;;
20369;SDS011;10344;47.592;9.600;2023-04-01T05:13:11;1.35;;;0.73;;
20369;SDS011;10344;47.592;9.600;2023-04-01T05:15:37;1.07;;;0.87;;
20369;SDS011;10344;47.592;9.600;2023-04-01T05:18:02;1.60;;;0.90;;
20369;SDS011;10344;47.592;9.600;2023-04-01T05:20:31;1.83;;;0.75;;
20369;SDS011;10344;47.592;9.600;2023-04-01T05:22:58;0.93;;;0.50;;
20369;SDS011;10344;47.592;9.600;2023-04-01T05:25:24;1.00;;;0.55;;
20369;SDS011;10344;47.592;9.600;2023-04-01T05:27:50;1.00;;;0.73;;
20369;SDS011;10344;47.592;9.600;2023-04-01T05:30:21;1.73;;;0.80;;
20369;SDS011;10344;47.592;9.600;2023-04-01T05:32:46;2.43;;;1.10;;
20369;SDS011;10344;47.592;9.600;2023-04-01T05:35:15;2.03;;;0.87;;
20369;SDS011;10344;47.592;9.600;2023-04-01T05:37:40;1.83;;;0.90;;
20369;SDS011;10344;47.592;9.600;2023-04-01T05:40:06;1.73;;;1.00;;
20369;SDS011;10344;47.592;9.600;2023-04-01T05:42:35;1.33;;;0.70;;
20369;SDS011;10344;47.592;9.600;2023-04-01T05:45:04;1.20;;;0.90;;
20369;SDS011;10344;47.592;9.600;2023-04-01T05:47:31;1.83;;;0.90;;
20369;SDS011;10344;47.592;9.600;2023-04-01T05:49:59;0.82;;;0.68;;
20369;SDS011;10344;47.592;9.600;2023-04-01T05:52:33;1.70;;;0.90;;
20369;SDS011;10344;47.592;9.600;2023-04-01T05:54:59;1.27;;;0.90;;
20369;SDS011;10344;47.592;9.600;2023-04-01T05:57:25;2.03;;;0.82;;
20369;SDS011;10344;47.592;9.600;2023-04-01T05:59:51;0.97;;;0.60;;
20369;SDS011;10344;47.592;9.600;2023-04-01T06:02:23;1.52;;;0.90;;
20369;SDS011;10344;47.592;9.600;2023-04-01T06:04:54;1.10;;;1.00;;
20369;SDS011;10344;47.592;9.600;2023-04-01T06:07:35;2.55;;;0.90;;
20369;SDS011;10344;47.592;9.600;2023-04-01T06:10:01;0.98;;;0.80;;
20369;SDS011;10344;47.592;9.600;2023-04-01T06:42:29;0.70;;;0.70;;
20369;SDS011;10344;47.592;9.600;2023-04-01T06:50:58;0.50;;;0.50;;
20369;SDS011;10344;47.592;9.600;2023-04-01T06:56:24;0.70;;;0.70;;
20369;SDS011;10344;47.592;9.600;2023-04-01T06:59:05;1.10;;;0.60;;
20369;SDS011;10344;47.592;9.600;2023-04-01T07:01:53;0.70;;;0.68;;
20369;SDS011;10344;47.592;9.600;2023-04-01T07:04:33;0.93;;;0.90;;
20369;SDS011;10344;47.592;9.600;2023-04-01T07:07:09;0.85;;;0.45;;
20369;SDS011;10344;47.592;9.600;2023-04-01T07:09:51;1.00;;;0.60;;
20369;SDS011;10344;47.592;9.600;2023-04-01T07:15:00;0.60;;;0.60;;
20369;SDS011;10344;47.592;9.600;2023-04-01T07:17:33;1.00;;;0.60;;
20369;SDS011;10344;47.592;9.600;2023-04-01T07:23:01;1.00;;;0.70;;
20369;SDS011;10344;47.592;9.600;2023-04-01T07:25:34;0.50;;;0.50;;
20369;SDS011;10344;47.592;9.600;2023-04-01T07:28:04;0.90;;;0.70;;
20369;SDS011;10344;47.592;9.600;2023-04-01T07:41:46;0.55;;;0.55;;
20369;SDS011;10344;47.592;9.600;2023-04-01T07:44:29;0.40;;;0.40;;
20369;SDS011;10344;47.592;9.600;2023-04-01T07:50:28;0.50;;;0.50;;
20369;SDS011;10344;47.592;9.600;2023-04-01T08:07:12;0.73;;;0.60;;
20369;SDS011;10344;47.592;9.600;2023-04-01T08:09:49;0.40;;;0.40;;
20369;SDS011;10344;47.592;9.600;2023-04-01T08:15:00;0.63;;;0.50;;
20369;SDS011;10344;47.592;9.600;2023-04-01T08:23:24;0.50;;;0.50;;
20369;SDS011;10344;47.592;9.600;2023-04-01T08:28:29;0.40;;;0.40;;
20369;SDS011;10344;47.592;9.600;2023-04-01T08:31:16;0.47;;;0.45;;
20369;SDS011;10344;47.592;9.600;2023-04-01T08:34:12;0.50;;;0.50;;
20369;SDS011;10344;47.592;9.600;2023-04-01T08:36:44;0.50;;;0.50;;
20369;SDS011;10344;47.592;9.600;2023-04-01T08:39:38;0.57;;;0.57;;
20369;SDS011;10344;47.592;9.600;2023-04-01T08:45:28;0.50;;;0.50;;
20369;SDS011;10344;47.592;9.600;2023-04-01T08:51:05;0.60;;;0.60;;
20369;SDS011;10344;47.592;9.600;2023-04-01T08:54:26;0.60;;;0.60;;
20369;SDS011;10344;47.592;9.600;2023-04-01T08:56:57;0.52;;;0.47;;
20369;SDS011;10344;47.592;9.600;2023-04-01T09:19:24;0.40;;;0.40;;
20369;SDS011;10344;47.592;9.600;2023-04-01T09:27:37;0.30;;;0.30;;
20369;SDS011;10344;47.592;9.600;2023-04-01T09:31:14;0.47;;;0.47;;
20369;SDS011;10344;47.592;9.600;2023-04-01T09:34:00;0.60;;;0.60;;
20369;SDS011;10344;47.592;9.600;2023-04-01T09:36:38;0.88;;;0.30;;
20369;SDS011;10344;47.592;9.600;2023-04-01T10:01:45;0.55;;;0.55;;
20369;SDS011;10344;47.592;9.600;2023-04-01T10:07:42;0.50;;;0.50;;
20369;SDS011;10344;47.592;9.600;2023-04-01T10:18:50;0.70;;;0.50;;
20369;SDS011;10344;47.592;9.600;2023-04-01T10:25:18;0.40;;;0.40;;
20369;SDS011;10344;47.592;9.600;2023-04-01T10:41:51;0.50;;;0.50;;
20369;SDS011;10344;47.592;9.600;2023-04-01T10:53:27;0.45;;;0.45;;
20369;SDS011;10344;47.592;9.600;2023-04-01T11:04:57;0.82;;;0.50;;
20369;SDS011;10344;47.592;9.600;2023-04-01T11:22:33;0.50;;;0.50;;
20369;SDS011;10344;47.592;9.600;2023-04-01T11:28:23;0.40;;;0.40;;
20369;SDS011;10344;47.592;9.600;2023-04-01T11:42:34;0.60;;;0.60;;
20369;SDS011;10344;47.592;9.600;2023-04-01T11:53:52;0.60;;;0.50;;
20369;SDS011;10344;47.592;9.600;2023-04-01T12:02:08;0.40;;;0.40;;
20369;SDS011;10344;47.592;9.600;2023-04-01T12:16:43;0.50;;;0.50;;
20369;SDS011;10344;47.592;9.600;2023-04-01T12:19:21;0.40;;;0.40;;
20369;SDS011;10344;47.592;9.600;2023-04-01T12:22:06;0.50;;;0.50;;
20369;SDS011;10344;47.592;9.600;2023-04-01T12:30:30;0.52;;;0.52;;
20369;SDS011;10344;47.592;9.600;2023-04-01T12:33:18;0.50;;;0.50;;
20369;SDS011;10344;47.592;9.600;2023-04-01T12:50:18;0.50;;;0.50;;
20369;SDS011;10344;47.592;9.600;2023-04-01T12:55:39;0.50;;;0.40;;
20369;SDS011;10344;47.592;9.600;2023-04-01T13:12:45;0.60;;;0.60;;
20369;SDS011;10344;47.592;9.600;2023-04-01T13:15:52;0.50;;;0.50;;
20369;SDS011;10344;47.592;9.600;2023-04-01T13:30:07;0.40;;;0.40;;
20369;SDS011;10344;47.592;9.600;2023-04-01T13:44:01;0.73;;;0.63;;
20369;SDS011;10344;47.592;9.600;2023-04-01T14:20:56;0.70;;;0.50;;
20369;SDS011;10344;47.592;9.600;2023-04-01T14:29:47;0.50;;;0.50;;
20369;SDS011;10344;47.592;9.600;2023-04-01T14:35:40;0.88;;;0.70;;
20369;SDS011;10344;47.592;9.600;2023-04-01T14:52:03;0.60;;;0.60;;
20369;SDS011;10344;47.592;9.600;2023-04-01T14:54:41;0.50;;;0.50;;
20369;SDS011;10344;47.592;9.600;2023-04-01T14:59:41;0.80;;;0.80;;
20369;SDS011;10344;47.592;9.600;2023-04-01T15:02:40;1.05;;;1.00;;
20369;SDS011;10344;47.592;9.600;2023-04-01T15:08:29;0.90;;;0.80;;
20369;SDS011;10344;47.592;9.600;2023-04-01T15:11:14;0.90;;;0.90;;
20369;SDS011;10344;47.592;9.600;2023-04-01T15:14:17;1.10;;;0.95;;
20369;SDS011;10344;47.592;9.600;2023-04-01T15:22:18;1.65;;;1.20;;
20369;SDS011;10344;47.592;9.600;2023-04-01T15:24:56;1.10;;;1.00;;
20369;SDS011;10344;47.592;9.600;2023-04-01T15:27:51;0.77;;;0.70;;
20369;SDS011;10344;47.592;9.600;2023-04-01T15:57:20;0.50;;;0.50;;
20369;SDS011;10344;47.592;9.600;2023-04-01T16:26:44;0.50;;;0.50;;
20369;SDS011;10344;47.592;9.600;2023-04-01T16:29:40;0.70;;;0.70;;
20369;SDS011;10344;47.592;9.600;2023-04-01T16:34:41;0.47;;;0.47;;
20369;SDS011;10344;47.592;9.600;2023-04-01T16:37:20;0.70;;;0.70;;
20369;SDS011;10344;47.592;9.600;2023-04-01T16:40:11;0.70;;;0.70;;
20369;SDS011;10344;47.592;9.600;2023-04-01T16:51:11;0.60;;;0.60;;
20369;SDS011;10344;47.592;9.600;2023-04-01T16:53:48;0.50;;;0.50;;
20369;SDS011;10344;47.592;9.600;2023-04-01T16:56:43;0.40;;;0.40;;
20369;SDS011;10344;47.592;9.600;2023-04-01T17:01:44;0.70;;;0.70;;
20369;SDS011;10344;47.592;9.600;2023-04-01T17:27:35;0.73;;;0.73;;
20369;SDS011;10344;47.592;9.600;2023-04-01T17:30:51;0.40;;;0.40;;
20369;SDS011;10344;47.592;9.600;2023-04-01T17:33:35;0.90;;;0.90;;
20369;SDS011;10344;47.592;9.600;2023-04-01T17:39:13;0.80;;;0.80;;
20369;SDS011;10344;47.592;9.600;2023-04-01T17:41:54;1.67;;;1.10;;
20369;SDS011;10344;47.592;9.600;2023-04-01T17:55:30;1.20;;;1.05;;
20369;SDS011;10344;47.592;9.600;2023-04-01T17:58:20;1.20;;;1.10;;
20369;SDS011;10344;47.592;9.600;2023-04-01T18:12:04;1.13;;;1.10;;
20369;SDS011;10344;47.592;9.600;2023-04-01T18:17:55;0.80;;;0.80;;
20369;SDS011;10344;47.592;9.600;2023-04-01T18:20:47;0.75;;;0.68;;
20369;SDS011;10344;47.592;9.600;2023-04-01T18:23:30;0.70;;;0.70;;
20369;SDS011;10344;47.592;9.600;2023-04-01T18:26:08;1.20;;;1.10;;
20369;SDS011;10344;47.592;9.600;2023-04-01T18:28:56;0.90;;;0.82;;
20369;SDS011;10344;47.592;9.600;2023-04-01T18:31:54;0.68;;;0.68;;
20369;SDS011;10344;47.592;9.600;2023-04-01T18:37:18;0.85;;;0.80;;
20369;SDS011;10344;47.592;9.600;2023-04-01T18:45:36;0.77;;;0.77;;
20369;SDS011;10344;47.592;9.600;2023-04-01T18:51:01;1.45;;;0.90;;
20369;SDS011;10344;47.592;9.600;2023-04-01T18:53:44;0.73;;;0.73;;
20369;SDS011;10344;47.592;9.600;2023-04-01T18:56:24;0.80;;;0.80;;
20369;SDS011;10344;47.592;9.600;2023-04-01T19:01:52;0.73;;;0.73;;
20369;SDS011;10344;47.592;9.600;2023-04-01T19:04:43;0.90;;;0.77;;
20369;SDS011;10344;47.592;9.600;2023-04-01T19:07:49;0.80;;;0.75;;
20369;SDS011;10344;47.592;9.600;2023-04-01T19:10:15;1.02;;;0.77;;
20369;SDS011;10344;47.592;9.600;2023-04-01T19:40:08;1.83;;;1.52;;
20369;SDS011;10344;47.592;9.600;2023-04-01T19:48:36;2.00;;;1.80;;
20369;SDS011;10344;47.592;9.600;2023-04-01T19:56:37;1.02;;;0.90;;
20369;SDS011;10344;47.592;9.600;2023-04-01T20:01:35;1.30;;;1.20;;
20369;SDS011;10344;47.592;9.600;2023-04-01T20:07:27;1.90;;;1.50;;
20369;SDS011;10344;47.592;9.600;2023-04-01T20:16:11;2.83;;;2.20;;
20369;SDS011;10344;47.592;9.600;2023-04-01T20:19:02;2.90;;;2.25;;
20369;SDS011;10344;47.592;9.600;2023-04-01T20:24:34;2.10;;;1.80;;
20369;SDS011;10344;47.592;9.600;2023-04-01T20:29:40;2.38;;;1.98;;
20369;SDS011;10344;47.592;9.600;2023-04-01T20:38:06;1.48;;;1.35;;
20369;SDS011;10344;47.592;9.600;2023-04-01T20:48:40;1.00;;;1.00;;
20369;SDS011;10344;47.592;9.600;2023-04-01T20:51:40;0.80;;;0.80;;
20369;SDS011;10344;47.592;9.600;2023-04-01T20:54:52;0.90;;;0.90;;
20369;SDS011;10344;47.592;9.600;2023-04-01T21:16:41;0.93;;;0.90;;
20369;SDS011;10344;47.592;9.600;2023-04-01T21:19:37;1.20;;;1.10;;
20369;SDS011;10344;47.592;9.600;2023-04-01T21:22:14;1.00;;;1.00;;
20369;SDS011;10344;47.592;9.600;2023-04-01T21:57:36;1.95;;;1.48;;
20369;SDS011;10344;47.592;9.600;2023-04-01T22:06:08;0.90;;;0.90;;
20369;SDS011;10344;47.592;9.600;2023-04-01T22:11:44;1.10;;;1.00;;
20369;SDS011;10344;47.592;9.600;2023-04-01T22:19:47;1.27;;;1.13;;
20369;SDS011;10344;47.592;9.600;2023-04-01T22:25:28;1.35;;;1.25;;
20369;SDS011;10344;47.592;9.600;2023-04-01T22:28:07;2.28;;;1.30;;
20369;SDS011;10344;47.592;9.600;2023-04-01T22:30:48;1.40;;;1.30;;
20369;SDS011;10344;47.592;9.600;2023-04-01T22:52:56;1.55;;;1.30;;
20369;SDS011;10344;47.592;9.600;2023-04-01T22:55:44;1.53;;;1.43;;
20369;SDS011;10344;47.592;9.600;2023-04-01T22:58:32;1.20;;;1.10;;
20369;SDS011;10344;47.592;9.600;2023-04-01T23:01:07;1.73;;;1.30;;
20369;SDS011;10344;47.592;9.600;2023-04-01T23:03:39;1.38;;;1.27;;
20369;SDS011;10344;47.592;9.600;2023-04-01T23:06:19;1.50;;;1.40;;
20369;SDS011;10344;47.592;9.600;2023-04-01T23:16:56;1.70;;;1.50;;
20369;SDS011;10344;47.592;9.600;2023-04-01T23:19:48;1.50;;;1.40;;
20369;SDS011;10344;47.592;9.600;2023-04-01T23:27:39;3.17;;;2.22;;
20369;SDS011;10344;47.592;9.600;2023-04-01T23:35:59;2.75;;;2.45;;
20369;SDS011;10344;47.592;9.600;2023-04-01T23:38:35;4.75;;;3.83;;
20369;SDS011;10344;47.592;9.600;2023-04-01T23:41:09;2.80;;;2.42;;
20369;SDS011;10344;47.592;9.600;2023-04-01T23:43:49;2.30;;;2.10;;
20369;SDS011;10344;47.592;9.600;2023-04-01T23:46:23;3.05;;;2.38;;
20369;SDS011;10344;47.592;9.600;2023-04-01T23:48:50;2.58;;;2.05;;
20369;SDS011;10344;47.592;9.600;2023-04-01T23:51:23;2.28;;;1.85;;
20369;SDS011;10344;47.592;9.600;2023-04-01T23:56:41;1.50;;;1.40;;
20369;SDS011;10344;47.592;9.600;2023-04-01T23:59:22;1.83;;;1.48;;
